Coral Leaf — PHNI — position and weather

sailwx.info

Track history (hours):
 
Tides and Currents Weather Stations Pressure Air Temp Water Temp Dewpoint Dewpoint Depression Visibility Wind Speed Wind Dir Waves Ship Positions

Coral Leaf

Last reported at 2016-Feb-14 19:33 UTC. Time now 2016-Feb-14 23:12 UTC.
Position N 52°50' E 003°48'.

Length 108 m; draft 6.9 m.

Type: Ship (hazmat cat A). MMSI: 244036000.

Date/timePositionNaut miles runAvg speedWind from/ knotsBaromVisibWave heightAir tempDewpointWater temp
2016-Feb-14 19:33N 52°50' E 003°48'1313.1
2016-Feb-14 18:33N 52°60' E 004°03'1614.3
2016-Feb-14 17:25N 53°10' E 004°24'4514.7
2016-Feb-14 14:23N 53°52' E 004°50'1214.2
2016-Feb-14 13:33N 54°03' E 004°56'1414.0
2016-Feb-14 12:33N 54°16' E 005°05'19614.0
2016-Feb-13 22:32N 57°07' E 007°55'1413.8
2016-Feb-13 21:32N 57°19' E 008°06'4413.8
2016-Feb-13 18:20N 57°60' E 008°40'1113.8
2016-Feb-13 17:33N 58°07' E 008°55'4713.9
2016-Feb-13 14:12N 58°46' E 009°43'1014.5
2016-Feb-13 13:31N 58°56' E 009°47'10 8.5
2016-Feb-13 12:23N 59°04' E 009°39'2 0.6
2016-Feb-13 08:32N 59°06' E 009°36'0 0.0
2016-Feb-12 19:33N 59°06' E 009°36'6310.5
2016-Feb-12 13:33N 58°05' E 009°04'20714.8
2016-Feb-11 23:33N 55°04' E 006°01'1515.0
2016-Feb-11 22:33N 54°51' E 005°48'4515.0
2016-Feb-11 19:34N 54°12' E 005°12'1514.8
2016-Feb-11 18:34N 53°58' E 005°03'1514.8
2016-Feb-11 17:33N 53°44' E 004°53'4314.2
2016-Feb-11 14:33N 53°05' E 004°25'1413.9
2016-Feb-11 13:33N 52°53' E 004°14'1413.7
2016-Feb-11 12:34N 52°41' E 004°02'1413.7
2016-Feb-11 11:33N 52°31' E 003°47'1313.1
2016-Feb-11 10:33N 52°21' E 003°32'5112.7
2016-Feb-11 06:33N 51°31' E 003°27'1212.4
2016-Feb-11 05:33N 51°24' E 003°43'1111.4
2016-Feb-11 04:33N 51°26' E 004°01'9 9.1
2016-Feb-11 03:33N 51°22' E 004°13'8 8.2
2016-Feb-11 02:33N 51°15' E 004°20'0 0.2
2016-Feb-11 01:32N 51°15' E 004°20'0 0.0
2016-Feb-11 00:32N 51°15' E 004°20'0 0.0
2016-Feb-10 23:32N 51°15' E 004°20'0 0.0
2016-Feb-10 22:32N 51°15' E 004°20'0 0.0
2016-Feb-10 21:32N 51°15' E 004°20'0 0.0
2016-Feb-10 20:31N 51°15' E 004°20'0 0.0
2016-Feb-10 19:31N 51°15' E 004°20'0 0.0
2016-Feb-10 18:31N 51°15' E 004°20'0 0.0
2016-Feb-10 17:31N 51°15' E 004°20'0 0.0
2016-Feb-10 16:31N 51°15' E 004°20'0 0.0
2016-Feb-10 15:31N 51°15' E 004°20'0 0.0
2016-Feb-10 14:31N 51°15' E 004°20'0 0.0
2016-Feb-10 13:31N 51°15' E 004°20'0 0.0
2016-Feb-10 12:31N 51°15' E 004°20'0 0.0
2016-Feb-10 11:31N 51°15' E 004°20'0 0.0
2016-Feb-10 10:33N 51°15' E 004°20'0 0.0
2016-Feb-10 09:33N 51°15' E 004°20'0 0.0
2016-Feb-10 08:33N 51°15' E 004°20'0 0.0
2016-Feb-10 07:33N 51°15' E 004°20'1 0.6
2016-Feb-10 06:33N 51°15' E 004°19'7 6.6
2016-Feb-10 05:33N 51°21' E 004°15'9 8.7
2016-Feb-10 04:33N 51°24' E 004°02'9 8.7
2016-Feb-10 03:33N 51°21' E 003°49'1110.7
2016-Feb-10 02:34N 51°26' E 003°34'1110.6
2016-Feb-10 01:33N 51°35' E 003°24'1010.1
2016-Feb-10 00:33N 51°44' E 003°16'2712.4
2016-Feb-09 22:19N 52°11' E 003°23'1013.3
2016-Feb-09 21:33N 52°21' E 003°26'1313.4
2016-Feb-09 20:33N 52°34' E 003°30'1313.3
2016-Feb-09 19:33N 52°45' E 003°42'1413.6
2016-Feb-09 18:33N 52°55' E 003°56'6512.8
2016-Feb-09 13:29N 53°52' E 004°49'1111.9
2016-Feb-09 12:33N 54°02' E 004°56'1110.5
2016-Feb-09 11:33N 54°12' E 005°03'262 8.1
2016-Feb-08 03:14N 58°03' E 008°48'7 9.8
2016-Feb-08 02:33N 58°08' E 008°56'60 9.4
2016-Feb-07 20:08N 59°03' E 009°43'5 8.4
2016-Feb-07 19:33N 59°06' E 009°36'0 0.0
2016-Feb-07 03:19N 59°06' E 009°36'5 5.4
2016-Feb-07 02:27N 59°03' E 009°43'3712.9
2016-Feb-06 23:34N 58°29' E 010°13'1615.9
2016-Feb-06 22:33N 58°15' E 010°27'1515.4
2016-Feb-06 21:33N 58°00' E 010°38'1515.3
2016-Feb-06 20:33N 57°46' E 010°48'8 1.0
2016-Feb-06 12:31N 57°40' E 010°38'0 0.0
2016-Feb-06 10:19N 57°40' E 010°38'0 0.0
2016-Feb-06 09:31N 57°40' E 010°38'3 3.6
2016-Feb-06 08:33N 57°43' E 010°42'1010.0
2016-Feb-06 07:33N 57°48' E 010°27'6113.5
2016-Feb-06 03:05N 57°23' E 008°44'11613.6
2016-Feb-05 18:30N 55°41' E 007°02'1314.0
2016-Feb-05 17:33N 55°28' E 007°02'1414.0
2016-Feb-05 16:33N 55°14' E 007°02'1413.9
2016-Feb-05 15:34N 55°01' E 007°07'1414.0
2016-Feb-05 14:34N 54°47' E 007°13'1413.6
2016-Feb-05 13:33N 54°34' E 007°19'1413.9
2016-Feb-05 12:33N 54°20' E 007°26'1413.8
2016-Feb-05 11:33N 54°07' E 007°33'1615.6
2016-Feb-05 10:33N 53°53' E 007°45'1313.4
2016-Feb-05 09:34N 53°45' E 008°03'7 6.6
2016-Feb-05 08:31N 53°39' E 008°06'0 0.0
2016-Feb-05 07:34N 53°39' E 008°06'0 0.0
2016-Feb-05 06:33N 53°39' E 008°06'0 0.0
2016-Feb-05 05:33N 53°39' E 008°06'0 0.0
2016-Feb-05 04:30N 53°39' E 008°06'0 0.0
2016-Feb-05 03:33N 53°39' E 008°06'0 0.0
2016-Feb-05 02:33N 53°39' E 008°06'0 0.0
2016-Feb-05 01:33N 53°39' E 008°06'0 0.0
2016-Feb-05 00:33N 53°39' E 008°06'0 0.0
2016-Feb-04 23:33N 53°39' E 008°06'0 0.0
2016-Feb-04 22:33N 53°39' E 008°06'0 0.0
2016-Feb-04 21:33N 53°39' E 008°06'0 0.0
2016-Feb-04 20:33N 53°39' E 008°06'0 0.0
2016-Feb-04 19:33N 53°39' E 008°06'  
Track history (hours):
 
Tides and Currents Weather Stations Pressure Air Temp Water Temp Dewpoint Dewpoint Depression Visibility Wind Speed Wind Dir Waves Ship Positions

Coral Leaf

Last reported at 2016-Feb-14 19:33 UTC. Time now 2016-Feb-14 23:12 UTC.
Position N 52°50' E 003°48'.

Length 108 m; draft 6.9 m.

Type: Ship (hazmat cat A). MMSI: 244036000.

Date/timePositionNaut miles runAvg speedWind from/ knotsBaromVisibWave heightAir tempDewpointWater temp
2016-Feb-14 19:33N 52°50' E 003°48'1313.1
2016-Feb-14 18:33N 52°60' E 004°03'1614.3
2016-Feb-14 17:25N 53°10' E 004°24'4514.7
2016-Feb-14 14:23N 53°52' E 004°50'1214.2
2016-Feb-14 13:33N 54°03' E 004°56'1414.0
2016-Feb-14 12:33N 54°16' E 005°05'19614.0
2016-Feb-13 22:32N 57°07' E 007°55'1413.8
2016-Feb-13 21:32N 57°19' E 008°06'4413.8
2016-Feb-13 18:20N 57°60' E 008°40'1113.8
2016-Feb-13 17:33N 58°07' E 008°55'4713.9
2016-Feb-13 14:12N 58°46' E 009°43'1014.5
2016-Feb-13 13:31N 58°56' E 009°47'10 8.5
2016-Feb-13 12:23N 59°04' E 009°39'2 0.6
2016-Feb-13 08:32N 59°06' E 009°36'0 0.0
2016-Feb-12 19:33N 59°06' E 009°36'6310.5
2016-Feb-12 13:33N 58°05' E 009°04'20714.8
2016-Feb-11 23:33N 55°04' E 006°01'1515.0
2016-Feb-11 22:33N 54°51' E 005°48'4515.0
2016-Feb-11 19:34N 54°12' E 005°12'1514.8
2016-Feb-11 18:34N 53°58' E 005°03'1514.8
2016-Feb-11 17:33N 53°44' E 004°53'4314.2
2016-Feb-11 14:33N 53°05' E 004°25'1413.9
2016-Feb-11 13:33N 52°53' E 004°14'1413.7
2016-Feb-11 12:34N 52°41' E 004°02'1413.7
2016-Feb-11 11:33N 52°31' E 003°47'1313.1
2016-Feb-11 10:33N 52°21' E 003°32'5112.7
2016-Feb-11 06:33N 51°31' E 003°27'1212.4
2016-Feb-11 05:33N 51°24' E 003°43'1111.4
2016-Feb-11 04:33N 51°26' E 004°01'9 9.1
2016-Feb-11 03:33N 51°22' E 004°13'8 8.2
2016-Feb-11 02:33N 51°15' E 004°20'0 0.2
2016-Feb-11 01:32N 51°15' E 004°20'0 0.0
2016-Feb-11 00:32N 51°15' E 004°20'0 0.0
2016-Feb-10 23:32N 51°15' E 004°20'0 0.0
2016-Feb-10 22:32N 51°15' E 004°20'0 0.0
2016-Feb-10 21:32N 51°15' E 004°20'0 0.0
2016-Feb-10 20:31N 51°15' E 004°20'0 0.0
2016-Feb-10 19:31N 51°15' E 004°20'0 0.0
2016-Feb-10 18:31N 51°15' E 004°20'0 0.0
2016-Feb-10 17:31N 51°15' E 004°20'0 0.0
2016-Feb-10 16:31N 51°15' E 004°20'0 0.0
2016-Feb-10 15:31N 51°15' E 004°20'0 0.0
2016-Feb-10 14:31N 51°15' E 004°20'0 0.0
2016-Feb-10 13:31N 51°15' E 004°20'0 0.0
2016-Feb-10 12:31N 51°15' E 004°20'0 0.0
2016-Feb-10 11:31N 51°15' E 004°20'0 0.0
2016-Feb-10 10:33N 51°15' E 004°20'0 0.0
2016-Feb-10 09:33N 51°15' E 004°20'0 0.0
2016-Feb-10 08:33N 51°15' E 004°20'0 0.0
2016-Feb-10 07:33N 51°15' E 004°20'1 0.6
2016-Feb-10 06:33N 51°15' E 004°19'7 6.6
2016-Feb-10 05:33N 51°21' E 004°15'9 8.7
2016-Feb-10 04:33N 51°24' E 004°02'9 8.7
2016-Feb-10 03:33N 51°21' E 003°49'1110.7
2016-Feb-10 02:34N 51°26' E 003°34'1110.6
2016-Feb-10 01:33N 51°35' E 003°24'1010.1
2016-Feb-10 00:33N 51°44' E 003°16'2712.4
2016-Feb-09 22:19N 52°11' E 003°23'1013.3
2016-Feb-09 21:33N 52°21' E 003°26'1313.4
2016-Feb-09 20:33N 52°34' E 003°30'1313.3
2016-Feb-09 19:33N 52°45' E 003°42'1413.6
2016-Feb-09 18:33N 52°55' E 003°56'6512.8
2016-Feb-09 13:29N 53°52' E 004°49'1111.9
2016-Feb-09 12:33N 54°02' E 004°56'1110.5
2016-Feb-09 11:33N 54°12' E 005°03'262 8.1
2016-Feb-08 03:14N 58°03' E 008°48'7 9.8
2016-Feb-08 02:33N 58°08' E 008°56'60 9.4
2016-Feb-07 20:08N 59°03' E 009°43'5 8.4
2016-Feb-07 19:33N 59°06' E 009°36'0 0.0
2016-Feb-07 03:19N 59°06' E 009°36'5 5.4
2016-Feb-07 02:27N 59°03' E 009°43'3712.9
2016-Feb-06 23:34N 58°29' E 010°13'1615.9
2016-Feb-06 22:33N 58°15' E 010°27'1515.4
2016-Feb-06 21:33N 58°00' E 010°38'1515.3
2016-Feb-06 20:33N 57°46' E 010°48'8 1.0
2016-Feb-06 12:31N 57°40' E 010°38'0 0.0
2016-Feb-06 10:19N 57°40' E 010°38'0 0.0
2016-Feb-06 09:31N 57°40' E 010°38'3 3.6
2016-Feb-06 08:33N 57°43' E 010°42'1010.0
2016-Feb-06 07:33N 57°48' E 010°27'6113.5
2016-Feb-06 03:05N 57°23' E 008°44'11613.6
2016-Feb-05 18:30N 55°41' E 007°02'1314.0
2016-Feb-05 17:33N 55°28' E 007°02'1414.0
2016-Feb-05 16:33N 55°14' E 007°02'1413.9
2016-Feb-05 15:34N 55°01' E 007°07'1414.0
2016-Feb-05 14:34N 54°47' E 007°13'1413.6
2016-Feb-05 13:33N 54°34' E 007°19'1413.9
2016-Feb-05 12:33N 54°20' E 007°26'1413.8
2016-Feb-05 11:33N 54°07' E 007°33'1615.6
2016-Feb-05 10:33N 53°53' E 007°45'1313.4
2016-Feb-05 09:34N 53°45' E 008°03'7 6.6
2016-Feb-05 08:31N 53°39' E 008°06'0 0.0
2016-Feb-05 07:34N 53°39' E 008°06'0 0.0
2016-Feb-05 06:33N 53°39' E 008°06'0 0.0
2016-Feb-05 05:33N 53°39' E 008°06'0 0.0
2016-Feb-05 04:30N 53°39' E 008°06'0 0.0
2016-Feb-05 03:33N 53°39' E 008°06'0 0.0
2016-Feb-05 02:33N 53°39' E 008°06'0 0.0
2016-Feb-05 01:33N 53°39' E 008°06'0 0.0
2016-Feb-05 00:33N 53°39' E 008°06'0 0.0
2016-Feb-04 23:33N 53°39' E 008°06'0 0.0
2016-Feb-04 22:33N 53°39' E 008°06'0 0.0
2016-Feb-04 21:33N 53°39' E 008°06'0 0.0
2016-Feb-04 20:33N 53°39' E 008°06'0 0.0
2016-Feb-04 19:33N 53°39' E 008°06'  

Dump ship's entire track history